Time;durP1;ratioP1;P1;durP2;ratioP2;P2;SDS_P1;SDS_P2;PMS_P1;PMS_P2;Temp;Humidity;BMP_temperature;BMP_pressure;BME280_temperature;BME280_humidity;BME280_pressure;Samples;Min_cycle;Max_cycle;Signal;HPM_P1;HPM_P2
2022/06/19 00:00:48;;;;;;;1.67;1.57;;;21.70;62.90;;;;;;5051628;28;21204;-87
2022/06/19 00:03:22;;;;;;;4.60;2.13;;;21.70;61.20;;;;;;5051433;28;21322;-87
2022/06/19 00:05:48;;;;;;;3.50;1.97;;;21.70;62.00;;;;;;5050534;28;20626;-87
2022/06/19 00:08:15;;;;;;;2.47;2.27;;;21.60;62.60;;;;;;5050606;28;20644;-86
2022/06/19 00:10:45;;;;;;;2.53;1.70;;;21.70;60.20;;;;;;5050824;28;20641;-87
2022/06/19 00:13:12;;;;;;;2.30;2.10;;;21.70;60.90;;;;;;5050976;28;20598;-87
2022/06/19 00:15:40;;;;;;;2.20;2.00;;;21.70;62.10;;;;;;5050824;28;21320;-87
2022/06/19 00:18:08;;;;;;;3.40;1.80;;;21.60;61.40;;;;;;5050804;28;20610;-87
2022/06/19 00:20:36;;;;;;;1.47;1.37;;;21.60;60.40;;;;;;5051079;28;20613;-87
2022/06/19 00:23:04;;;;;;;2.70;2.07;;;21.60;60.80;;;;;;5049369;28;20733;-87
2022/06/19 00:25:32;;;;;;;2.33;1.97;;;21.60;60.40;;;;;;5082141;28;20625;-87
2022/06/19 00:28:00;;;;;;;1.97;1.67;;;21.60;59.40;;;;;;5050671;28;20616;-87
2022/06/19 00:30:28;;;;;;;5.30;3.60;;;21.60;60.80;;;;;;5050938;28;20622;-86
2022/06/19 00:32:55;;;;;;;2.37;2.00;;;21.50;61.40;;;;;;5050643;28;20673;-87
2022/06/19 00:35:24;;;;;;;4.13;1.67;;;21.50;59.70;;;;;;5050807;28;20612;-87
2022/06/19 00:37:51;;;;;;;2.17;1.90;;;21.50;60.80;;;;;;5050010;28;20614;-87
2022/06/19 00:40:19;;;;;;;4.13;2.03;;;21.50;61.60;;;;;;5050579;28;20622;-86
2022/06/19 00:42:46;;;;;;;1.70;1.60;;;21.50;61.30;;;;;;5050727;28;20605;-87
2022/06/19 00:45:35;;;;;;;1.83;1.73;;;21.50;61.20;;;;;;5050544;28;20762;-86
2022/06/19 00:48:11;;;;;;;2.23;2.00;;;21.40;61.40;;;;;;5050022;28;20643;-87
2022/06/19 00:50:40;;;;;;;2.60;1.90;;;21.30;61.50;;;;;;5050403;28;20617;-88
2022/06/19 00:53:10;;;;;;;1.37;1.27;;;21.30;60.70;;;;;;5050002;28;20661;-87
2022/06/19 00:55:41;;;;;;;4.60;1.60;;;21.30;61.70;;;;;;5049134;28;20675;-87
2022/06/19 00:58:14;;;;;;;3.23;3.03;;;21.20;62.00;;;;;;5049398;28;20614;-85
2022/06/19 01:00:43;;;;;;;1.50;1.40;;;21.20;61.20;;;;;;5050129;28;20701;-86
2022/06/19 01:03:14;;;;;;;2.30;1.57;;;21.30;62.00;;;;;;5049631;28;20608;-86
2022/06/19 01:05:44;;;;;;;2.40;1.70;;;21.20;61.50;;;;;;5049490;28;20664;-86
2022/06/19 01:08:12;;;;;;;2.77;1.57;;;21.20;61.00;;;;;;5049120;28;20617;-86
2022/06/19 01:10:42;;;;;;;1.77;1.67;;;21.20;60.80;;;;;;5049480;28;20602;-87
2022/06/19 01:13:11;;;;;;;1.87;1.47;;;21.30;62.50;;;;;;5049771;28;20650;-87
2022/06/19 01:15:39;;;;;;;3.00;1.90;;;21.10;62.70;;;;;;5049476;28;20700;-87
2022/06/19 01:18:10;;;;;;;1.63;1.43;;;21.10;63.40;;;;;;5049661;28;20614;-85
2022/06/19 01:20:40;;;;;;;4.87;1.80;;;21.20;62.40;;;;;;5049940;28;20606;-87
2022/06/19 01:23:14;;;;;;;3.40;2.10;;;21.10;63.60;;;;;;5048668;28;20645;-86
2022/06/19 01:25:44;;;;;;;1.80;1.70;;;21.10;64.30;;;;;;5049899;28;20779;-87
2022/06/19 01:31:02;;;;;;;2.07;1.87;;;20.90;64.20;;;;;;5049867;28;20607;-86
2022/06/19 01:33:34;;;;;;;2.63;1.60;;;20.80;64.30;;;;;;5049142;28;20628;-86
2022/06/19 01:36:04;;;;;;;2.43;1.93;;;20.80;65.40;;;;;;5049060;28;20606;-86
2022/06/19 01:38:35;;;;;;;4.03;1.80;;;20.80;62.80;;;;;;5049552;28;20633;-86
2022/06/19 01:41:08;;;;;;;2.73;1.83;;;21.00;64.30;;;;;;5049956;28;20700;-87
2022/06/19 01:43:36;;;;;;;2.13;1.93;;;21.00;63.30;;;;;;5049580;28;20653;-85
2022/06/19 01:46:05;;;;;;;1.50;1.40;;;21.00;62.60;;;;;;5048166;28;21195;-87
2022/06/19 01:48:33;;;;;;;1.63;1.53;;;21.00;63.10;;;;;;5049421;28;20618;-86
2022/06/19 01:51:04;;;;;;;1.50;1.40;;;20.90;63.30;;;;;;5049344;28;20606;-86
2022/06/19 01:53:36;;;;;;;1.67;1.50;;;20.90;65.10;;;;;;5049083;28;20700;-86
2022/06/19 01:56:11;;;;;;;2.00;1.90;;;20.80;65.00;;;;;;5048598;28;21348;-86
2022/06/19 01:58:43;;;;;;;2.60;2.40;;;20.70;64.40;;;;;;5048800;28;20609;-86
2022/06/19 02:01:11;;;;;;;2.23;2.03;;;20.80;66.40;;;;;;5080395;28;21194;-86
2022/06/19 02:03:45;;;;;;;3.53;2.10;;;20.80;63.10;;;;;;5049080;28;20617;-86
2022/06/19 02:06:15;;;;;;;1.77;1.67;;;20.70;64.80;;;;;;5048573;28;20727;-86
2022/06/19 02:08:44;;;;;;;2.23;2.13;;;20.60;64.70;;;;;;5048833;28;21098;-86
2022/06/19 02:11:13;;;;;;;2.90;2.30;;;20.50;65.40;;;;;;5048412;28;20602;-86
2022/06/19 02:13:41;;;;;;;1.80;1.70;;;20.30;66.60;;;;;;5048594;28;20602;-86
2022/06/19 02:16:16;;;;;;;1.90;1.80;;;20.40;63.20;;;;;;5048356;28;20638;-86
2022/06/19 02:18:46;;;;;;;2.57;1.60;;;20.60;62.50;;;;;;5048700;28;20712;-86
2022/06/19 02:21:15;;;;;;;2.40;2.20;;;20.70;61.10;;;;;;5047341;28;21165;-86
2022/06/19 02:23:42;;;;;;;2.00;1.90;;;20.80;61.80;;;;;;5048121;28;20626;-86
2022/06/19 02:26:13;;;;;;;1.93;1.80;;;20.80;61.40;;;;;;5048170;28;20629;-86
2022/06/19 02:28:43;;;;;;;3.60;2.63;;;20.90;61.30;;;;;;5048854;28;20618;-86
2022/06/19 02:31:11;;;;;;;2.10;1.80;;;20.90;61.80;;;;;;5048281;28;20610;-86
2022/06/19 02:33:45;;;;;;;2.03;1.83;;;20.90;62.20;;;;;;5047954;28;20761;-87
2022/06/19 02:36:37;;;;;;;1.10;1.00;;;20.90;62.00;;;;;;5047574;28;20625;-86
2022/06/19 02:39:25;;;;;;;4.30;1.50;;;20.80;62.00;;;;;;5048232;28;20618;-85
2022/06/19 02:42:00;;;;;;;2.90;2.10;;;20.90;62.20;;;;;;5048377;28;20816;-86
2022/06/19 02:44:32;;;;;;;3.23;2.93;;;20.90;62.70;;;;;;5047968;28;20716;-87
2022/06/19 02:46:59;;;;;;;1.70;1.57;;;20.70;62.00;;;;;;5047424;28;20663;-86
2022/06/19 02:49:26;;;;;;;3.20;1.93;;;20.80;60.70;;;;;;5048389;28;20744;-86
2022/06/19 02:51:53;;;;;;;2.37;2.17;;;20.80;59.60;;;;;;5048135;28;20698;-86
2022/06/19 02:54:20;;;;;;;1.73;1.63;;;20.80;60.20;;;;;;5080066;28;20757;-86
2022/06/19 02:56:47;;;;;;;2.13;1.90;;;20.80;60.80;;;;;;5047853;28;20626;-86
2022/06/19 02:59:15;;;;;;;4.00;1.90;;;20.90;60.90;;;;;;5048042;28;20676;-86
2022/06/19 03:01:42;;;;;;;1.90;1.40;;;20.90;60.20;;;;;;5048045;28;20618;-86
2022/06/19 03:04:17;;;;;;;2.20;1.37;;;20.90;60.00;;;;;;5048577;28;20680;-86
2022/06/19 03:06:44;;;;;;;1.80;1.70;;;20.80;61.40;;;;;;5047587;28;20661;-87
2022/06/19 03:09:10;;;;;;;1.70;1.60;;;20.80;61.40;;;;;;5048493;28;20626;-86
2022/06/19 03:11:37;;;;;;;2.13;1.47;;;20.80;60.60;;;;;;5047525;28;20689;-86
2022/06/19 03:14:04;;;;;;;8.17;1.47;;;20.90;59.50;;;;;;5048326;28;20638;-86
2022/06/19 03:16:33;;;;;;;1.60;1.50;;;20.90;60.70;;;;;;5047328;28;20625;-86
2022/06/19 03:19:00;;;;;;;1.53;1.43;;;20.80;61.80;;;;;;5050091;28;20618;-86
2022/06/19 03:21:27;;;;;;;1.70;1.60;;;20.80;62.00;;;;;;5050688;28;20690;-86
2022/06/19 03:23:54;;;;;;;1.73;1.43;;;20.70;63.00;;;;;;5051649;28;20629;-87
2022/06/19 03:26:21;;;;;;;3.07;2.07;;;20.70;62.80;;;;;;5051344;28;20668;-86
2022/06/19 03:28:48;;;;;;;2.10;1.90;;;20.70;62.60;;;;;;5052249;28;21294;-87
2022/06/19 03:31:19;;;;;;;2.67;2.00;;;20.70;62.40;;;;;;5051618;28;20683;-86
2022/06/19 03:33:47;;;;;;;1.70;1.33;;;20.70;61.40;;;;;;5051878;28;20657;-87
2022/06/19 03:36:14;;;;;;;2.43;2.23;;;20.80;61.50;;;;;;5051227;28;20636;-86
2022/06/19 03:38:41;;;;;;;2.10;1.90;;;20.80;62.00;;;;;;5051510;28;21538;-86
2022/06/19 03:41:08;;;;;;;4.57;1.77;;;20.80;62.00;;;;;;5051886;28;20633;-86
2022/06/19 03:43:36;;;;;;;2.60;1.27;;;20.60;62.80;;;;;;5051703;28;20695;-86
2022/06/19 03:46:05;;;;;;;3.23;2.27;;;20.70;62.10;;;;;;5050940;28;20614;-86
2022/06/19 03:48:32;;;;;;;1.80;1.40;;;20.60;63.60;;;;;;5051486;28;20642;-87
2022/06/19 03:51:00;;;;;;;1.90;1.57;;;20.60;62.40;;;;;;5051229;28;20700;-87
2022/06/19 03:53:27;;;;;;;4.30;1.53;;;20.80;61.90;;;;;;5051077;28;20653;-86
2022/06/19 03:55:57;;;;;;;4.87;1.50;;;20.80;63.20;;;;;;5051116;28;20726;-87
2022/06/19 03:58:45;;;;;;;1.90;1.80;;;20.90;61.70;;;;;;5051316;28;20614;-86
2022/06/19 04:01:13;;;;;;;2.53;1.47;;;21.10;61.30;;;;;;5051421;28;20662;-86
2022/06/19 04:03:40;;;;;;;4.20;2.30;;;21.10;61.20;;;;;;5051078;28;20614;-86
2022/06/19 04:06:09;;;;;;;1.80;1.70;;;21.10;59.80;;;;;;5051210;28;20996;-85
2022/06/19 04:08:36;;;;;;;1.90;1.80;;;21.20;59.30;;;;;;5050723;28;20657;-87
2022/06/19 04:11:03;;;;;;;1.80;1.70;;;21.30;59.30;;;;;;5051048;28;20689;-87
2022/06/19 04:13:30;;;;;;;1.90;1.50;;;21.40;60.30;;;;;;5050771;28;21240;-87
2022/06/19 04:15:57;;;;;;;2.77;1.90;;;21.40;61.10;;;;;;5050403;28;20743;-87
2022/06/19 04:18:25;;;;;;;1.90;1.80;;;21.40;61.00;;;;;;5050426;28;20707;-86
2022/06/19 04:20:52;;;;;;;1.40;1.30;;;21.40;60.90;;;;;;5050702;28;20720;-87
2022/06/19 04:23:20;;;;;;;2.57;1.87;;;21.40;61.90;;;;;;5051082;28;20696;-87
2022/06/19 04:25:48;;;;;;;2.70;1.50;;;21.40;63.10;;;;;;5050657;28;20614;-87
2022/06/19 04:28:17;;;;;;;1.83;1.47;;;21.40;62.40;;;;;;5050717;28;20628;-86
2022/06/19 04:30:46;;;;;;;4.20;2.57;;;21.40;62.80;;;;;;5051163;28;20726;-87
2022/06/19 04:33:14;;;;;;;4.13;2.07;;;21.50;60.90;;;;;;5050959;28;20664;-86
2022/06/19 04:35:41;;;;;;;2.93;1.70;;;21.50;59.90;;;;;;5051000;28;20983;-86
2022/06/19 04:38:08;;;;;;;1.67;1.57;;;21.60;60.40;;;;;;5050607;28;20675;-87
2022/06/19 04:40:37;;;;;;;1.60;1.50;;;21.70;60.40;;;;;;5035643;28;20684;-86
2022/06/19 04:43:05;;;;;;;2.00;1.60;;;21.70;61.40;;;;;;5050306;28;20947;-87
2022/06/19 04:45:32;;;;;;;1.70;1.60;;;21.80;59.70;;;;;;5050689;28;20603;-87
2022/06/19 04:47:59;;;;;;;3.47;1.90;;;21.90;60.10;;;;;;5050081;28;20662;-87
2022/06/19 04:50:27;;;;;;;1.93;1.70;;;21.90;61.00;;;;;;5050230;28;20675;-87
2022/06/19 04:52:54;;;;;;;7.10;1.90;;;22.00;60.90;;;;;;5050197;28;21269;-87
2022/06/19 04:55:21;;;;;;;2.03;1.87;;;22.00;61.10;;;;;;5050001;28;20647;-86
2022/06/19 04:57:49;;;;;;;2.50;1.73;;;22.10;60.50;;;;;;5050054;28;20672;-87
2022/06/19 05:00:19;;;;;;;4.17;2.00;;;22.10;60.30;;;;;;5050438;28;20620;-86
2022/06/19 05:02:49;;;;;;;2.03;1.87;;;22.20;59.70;;;;;;5050012;28;20625;-87
2022/06/19 05:05:20;;;;;;;2.10;1.87;;;22.20;59.40;;;;;;5050037;28;20614;-87
2022/06/19 05:07:48;;;;;;;3.80;2.33;;;22.30;59.80;;;;;;5049587;28;20614;-87
2022/06/19 05:10:15;;;;;;;3.10;2.10;;;22.40;60.30;;;;;;5049767;28;20658;-87
2022/06/19 05:12:42;;;;;;;4.10;2.27;;;22.40;60.80;;;;;;5050083;28;20658;-85
2022/06/19 05:15:11;;;;;;;2.27;2.07;;;22.50;60.70;;;;;;5050313;28;20618;-87
2022/06/19 05:17:38;;;;;;;3.47;1.93;;;22.50;60.40;;;;;;5049050;28;20614;-87
2022/06/19 05:20:06;;;;;;;2.20;1.90;;;22.50;60.20;;;;;;5049824;28;20676;-87
2022/06/19 05:22:35;;;;;;;2.17;2.00;;;22.70;60.20;;;;;;5049345;28;21113;-87
2022/06/19 05:25:04;;;;;;;2.70;1.60;;;22.80;58.90;;;;;;5049589;28;20695;-87
2022/06/19 05:27:31;;;;;;;1.90;1.50;;;22.90;59.30;;;;;;5080738;28;20738;-87
2022/06/19 05:29:58;;;;;;;3.63;1.70;;;22.90;59.40;;;;;;5049748;28;20636;-87
2022/06/19 05:32:27;;;;;;;1.73;1.63;;;23.00;59.10;;;;;;5049258;28;21038;-86
2022/06/19 05:34:54;;;;;;;2.17;1.60;;;23.00;59.10;;;;;;5049497;28;20719;-85
2022/06/19 05:37:21;;;;;;;2.20;1.70;;;23.10;59.00;;;;;;5048608;28;20617;-87
2022/06/19 05:39:48;;;;;;;2.13;1.93;;;23.10;59.10;;;;;;5049634;28;21085;-87
2022/06/19 05:42:15;;;;;;;3.07;2.87;;;23.10;59.10;;;;;;5049429;28;20679;-87
2022/06/19 05:44:41;;;;;;;2.30;2.00;;;23.20;59.00;;;;;;5049277;28;20656;-87
2022/06/19 05:47:08;;;;;;;2.17;1.80;;;23.30;59.30;;;;;;5048860;28;21079;-86
2022/06/19 05:49:37;;;;;;;3.67;2.30;;;23.40;58.30;;;;;;5048977;28;21116;-87
2022/06/19 05:52:15;;;;;;;2.03;1.90;;;23.50;58.80;;;;;;5049376;28;20642;-87
2022/06/19 05:54:43;;;;;;;2.30;2.13;;;23.60;59.00;;;;;;5049240;28;20739;-87
2022/06/19 05:57:10;;;;;;;1.90;1.80;;;23.70;59.10;;;;;;5048927;28;20622;-88
2022/06/19 05:59:37;;;;;;;1.57;1.40;;;23.70;59.50;;;;;;5049225;28;20672;-87
2022/06/19 06:02:05;;;;;;;2.20;2.00;;;23.80;58.70;;;;;;5049048;28;20740;-87
2022/06/19 06:04:32;;;;;;;2.17;1.97;;;23.90;58.50;;;;;;5048386;28;20622;-87
2022/06/19 06:07:00;;;;;;;3.17;1.80;;;24.00;58.40;;;;;;5048592;28;20717;-87
2022/06/19 06:09:27;;;;;;;4.13;2.50;;;24.10;59.00;;;;;;5048869;28;20767;-87
2022/06/19 06:11:54;;;;;;;2.13;2.03;;;24.10;58.80;;;;;;5049026;28;20626;-87
2022/06/19 06:14:21;;;;;;;1.97;1.77;;;24.20;58.30;;;;;;5048635;28;20689;-87
2022/06/19 06:16:48;;;;;;;3.40;2.03;;;24.20;59.00;;;;;;5047849;28;20630;-86
2022/06/19 06:19:15;;;;;;;2.40;2.10;;;24.30;58.20;;;;;;5048715;28;20618;-85
2022/06/19 06:21:42;;;;;;;2.83;2.10;;;24.40;58.70;;;;;;5048215;28;20626;-88
2022/06/19 06:24:13;;;;;;;2.00;1.90;;;24.50;58.60;;;;;;5048770;28;20629;-87
2022/06/19 06:26:40;;;;;;;1.80;1.67;;;24.60;58.20;;;;;;5048138;28;20703;-87
2022/06/19 06:29:07;;;;;;;2.27;2.10;;;24.70;58.50;;;;;;5048529;28;20625;-87
2022/06/19 06:31:34;;;;;;;2.43;2.23;;;24.80;58.30;;;;;;5047753;28;20729;-87
2022/06/19 06:34:01;;;;;;;4.93;2.03;;;24.90;58.20;;;;;;5048304;28;20760;-87
2022/06/19 06:36:29;;;;;;;2.27;2.07;;;25.00;58.10;;;;;;5047841;28;20640;-87
2022/06/19 06:38:56;;;;;;;2.40;2.10;;;25.00;58.40;;;;;;5048657;28;20634;-88
2022/06/19 06:41:29;;;;;;;2.00;1.90;;;25.10;57.90;;;;;;5048573;28;21479;-86
2022/06/19 06:43:56;;;;;;;2.47;1.73;;;25.20;57.80;;;;;;5048585;28;20683;-87
2022/06/19 06:46:25;;;;;;;3.10;1.90;;;25.30;58.30;;;;;;5047991;28;21244;-87
2022/06/19 06:48:54;;;;;;;3.90;2.03;;;25.40;58.40;;;;;;5048996;28;20610;-88
2022/06/19 06:51:24;;;;;;;3.07;1.53;;;25.50;57.80;;;;;;5048242;28;20621;-87
2022/06/19 06:53:51;;;;;;;1.60;1.50;;;25.70;57.80;;;;;;5047381;28;20727;-87
2022/06/19 06:56:21;;;;;;;3.90;2.70;;;25.80;58.20;;;;;;5047691;28;21164;-87
2022/06/19 06:58:52;;;;;;;2.73;2.53;;;26.00;57.80;;;;;;5048511;28;20993;-86
2022/06/19 07:01:22;;;;;;;2.60;2.40;;;26.10;57.50;;;;;;5048154;28;21164;-87
2022/06/19 07:03:54;;;;;;;3.00;2.80;;;26.20;57.40;;;;;;5048113;28;20675;-88
2022/06/19 07:06:21;;;;;;;2.10;1.97;;;26.10;57.70;;;;;;5047633;28;20630;-88
2022/06/19 07:08:48;;;;;;;2.37;2.17;;;26.00;57.90;;;;;;5047900;28;21023;-87
2022/06/19 07:11:20;;;;;;;2.80;2.60;;;26.00;58.50;;;;;;5047991;28;21126;-87
2022/06/19 07:13:47;;;;;;;2.73;2.60;;;26.00;58.20;;;;;;5048390;28;20650;-87
2022/06/19 07:16:15;;;;;;;2.93;2.73;;;26.10;58.40;;;;;;5047881;28;20725;-87
2022/06/19 07:18:42;;;;;;;2.67;2.47;;;26.30;58.60;;;;;;5048061;28;20610;-87
2022/06/19 07:21:10;;;;;;;2.57;2.37;;;26.40;58.90;;;;;;5047289;28;20626;-88
2022/06/19 07:23:37;;;;;;;2.73;2.53;;;26.60;59.00;;;;;;5047646;28;20622;-86
2022/06/19 07:26:04;;;;;;;2.23;2.03;;;26.60;59.30;;;;;;5047710;28;21196;-88
2022/06/19 07:28:31;;;;;;;2.17;2.00;;;26.80;59.60;;;;;;5048074;28;20706;-88
2022/06/19 07:30:58;;;;;;;3.10;2.77;;;26.80;58.90;;;;;;5047801;28;20621;-87
2022/06/19 07:33:26;;;;;;;3.37;2.67;;;27.10;58.50;;;;;;5047633;28;20687;-87
2022/06/19 07:35:53;;;;;;;2.93;2.73;;;27.20;56.80;;;;;;5047362;28;21134;-88
2022/06/19 07:38:21;;;;;;;4.20;2.93;;;27.30;56.70;;;;;;5047686;28;20614;-89
2022/06/19 07:40:49;;;;;;;4.20;2.97;;;27.40;57.40;;;;;;5047734;28;20622;-88
2022/06/19 07:43:15;;;;;;;2.77;2.57;;;27.40;56.80;;;;;;5048026;28;20966;-88
2022/06/19 07:45:42;;;;;;;3.77;2.90;;;27.30;57.20;;;;;;5047749;28;21192;-88
2022/06/19 07:50:56;;;;;;;3.10;2.90;;;27.70;55.80;;;;;;5047628;28;20630;-87
2022/06/19 07:53:23;;;;;;;3.40;2.43;;;27.80;56.90;;;;;;5046518;28;20650;-87
2022/06/19 07:55:52;;;;;;;3.70;3.30;;;28.00;55.90;;;;;;5046943;28;20736;-88
2022/06/19 07:58:19;;;;;;;3.20;3.00;;;28.10;56.10;;;;;;5047816;28;21005;-88
2022/06/19 08:00:46;;;;;;;2.90;2.70;;;28.30;56.60;;;;;;5047639;28;21036;-88
2022/06/19 08:03:13;;;;;;;3.27;2.97;;;28.40;56.50;;;;;;5047899;28;20618;-87
2022/06/19 08:05:41;;;;;;;3.53;2.97;;;28.50;56.70;;;;;;5050347;28;20668;-89
2022/06/19 08:08:16;;;;;;;4.07;3.67;;;28.60;56.80;;;;;;5051169;28;20657;-88
2022/06/19 08:10:44;;;;;;;3.60;3.30;;;28.80;55.70;;;;;;5051402;28;20609;-88
2022/06/19 08:13:11;;;;;;;4.23;3.93;;;28.90;55.80;;;;;;5051142;28;20654;-88
2022/06/19 08:15:39;;;;;;;4.10;3.80;;;29.10;56.40;;;;;;5050697;28;20632;-88
2022/06/19 08:18:06;;;;;;;4.87;4.47;;;29.10;56.20;;;;;;5051030;28;20617;-88
2022/06/19 08:20:33;;;;;;;5.47;3.83;;;29.20;55.30;;;;;;5051310;28;20724;-88
2022/06/19 08:23:00;;;;;;;8.60;5.37;;;29.40;55.30;;;;;;5050336;28;20721;-89
2022/06/19 08:25:28;;;;;;;5.53;5.10;;;29.40;54.90;;;;;;5051059;28;20700;-88
2022/06/19 08:27:55;;;;;;;5.37;4.87;;;29.50;53.90;;;;;;5050873;28;20626;-86
2022/06/19 08:30:24;;;;;;;6.17;5.53;;;29.60;53.90;;;;;;5050864;28;20641;-88
2022/06/19 08:32:51;;;;;;;5.23;4.80;;;29.70;53.40;;;;;;5051031;28;20710;-88
2022/06/19 08:35:19;;;;;;;6.33;5.70;;;29.80;53.80;;;;;;5051463;28;20669;-88
2022/06/19 08:37:50;;;;;;;5.63;5.23;;;30.00;53.00;;;;;;5050215;28;20704;-88
2022/06/19 08:40:35;;;;;;;5.10;4.60;;;30.20;52.20;;;;;;5050610;28;20622;-87
2022/06/19 08:43:15;;;;;;;7.37;4.90;;;30.30;51.00;;;;;;5050818;28;20618;-88
2022/06/19 08:45:49;;;;;;;4.73;4.33;;;30.50;49.30;;;;;;5051139;28;21263;-86
2022/06/19 08:48:56;;;;;;;5.50;5.00;;;30.60;49.80;;;;;;5050705;28;20597;-89
2022/06/19 08:51:32;;;;;;;5.20;4.80;;;30.70;51.20;;;;;;5049207;28;21246;-88
2022/06/19 08:54:14;;;;;;;6.10;5.10;;;30.80;50.10;;;;;;5050356;28;20742;-88
2022/06/19 08:56:54;;;;;;;5.40;4.97;;;30.90;50.60;;;;;;5050126;28;20720;-89
2022/06/19 08:59:31;;;;;;;6.33;5.17;;;31.10;48.30;;;;;;5049836;28;21052;-87
2022/06/19 09:02:04;;;;;;;5.70;5.20;;;31.10;48.60;;;;;;5050446;28;20614;-87
2022/06/19 09:07:37;;;;;;;4.97;4.47;;;31.20;49.20;;;;;;5049556;28;20606;-87
2022/06/19 09:10:15;;;;;;;6.47;5.83;;;31.40;46.90;;;;;;5049912;28;20761;-87
2022/06/19 09:13:04;;;;;;;6.37;4.60;;;31.50;46.00;;;;;;5050079;28;20705;-89
2022/06/19 09:15:39;;;;;;;6.77;5.77;;;31.60;47.40;;;;;;5049616;28;20657;-89
2022/06/19 09:18:07;;;;;;;5.47;5.00;;;31.80;44.80;;;;;;5049081;28;20626;-88
2022/06/19 09:20:41;;;;;;;5.53;5.03;;;31.80;44.40;;;;;;5049928;28;20625;-88
2022/06/19 09:23:41;;;;;;;4.73;4.43;;;31.80;43.40;;;;;;5049357;28;20697;-89
2022/06/19 09:26:13;;;;;;;4.20;3.90;;;31.90;43.30;;;;;;5049371;28;20634;-88
2022/06/19 09:28:47;;;;;;;4.73;4.30;;;32.00;41.70;;;;;;5049363;28;20626;-87
2022/06/19 09:31:18;;;;;;;5.27;4.87;;;32.10;41.00;;;;;;5049880;28;20618;-88
2022/06/19 09:33:54;;;;;;;5.37;4.97;;;32.20;43.70;;;;;;5049926;28;20622;-87
2022/06/19 09:36:25;;;;;;;5.40;5.00;;;32.40;42.30;;;;;;5049206;28;20863;-88
2022/06/19 09:38:59;;;;;;;4.63;4.23;;;32.50;42.30;;;;;;5049249;28;20684;-88
2022/06/19 09:41:34;;;;;;;4.83;4.43;;;32.50;41.40;;;;;;5049587;28;20630;-87
2022/06/19 09:44:08;;;;;;;4.03;3.70;;;32.40;40.30;;;;;;5049992;28;20613;-88
2022/06/19 09:46:43;;;;;;;3.70;3.40;;;32.40;40.10;;;;;;5049449;28;20805;-89
2022/06/19 09:49:16;;;;;;;3.73;3.53;;;32.50;41.20;;;;;;5050228;28;20958;-88
2022/06/19 09:51:50;;;;;;;5.07;4.60;;;32.60;41.20;;;;;;5050254;28;20626;-86
2022/06/19 09:54:23;;;;;;;4.47;4.10;;;32.80;41.90;;;;;;5049258;28;20690;-88
2022/06/19 09:57:00;;;;;;;5.00;4.33;;;32.90;41.30;;;;;;5048924;28;20824;-87
2022/06/19 09:59:34;;;;;;;4.73;4.20;;;33.00;42.10;;;;;;5049379;28;20645;-88
2022/06/19 10:02:14;;;;;;;4.50;3.97;;;33.10;40.30;;;;;;5048720;28;21093;-88
2022/06/19 10:04:50;;;;;;;4.37;3.97;;;33.40;41.80;;;;;;5049313;28;20613;-89
2022/06/19 10:07:27;;;;;;;5.70;5.20;;;33.40;41.10;;;;;;5048572;28;21168;-86
2022/06/19 10:10:00;;;;;;;5.40;4.83;;;33.40;40.30;;;;;;5048804;28;21044;-90
2022/06/19 10:12:35;;;;;;;5.67;5.03;;;33.40;40.50;;;;;;5049066;28;20605;-88
2022/06/19 10:15:06;;;;;;;4.80;4.40;;;33.50;40.80;;;;;;5049368;28;21211;-87
2022/06/19 10:17:45;;;;;;;5.50;5.07;;;33.50;40.20;;;;;;5048516;28;20626;-89
2022/06/19 10:20:15;;;;;;;5.23;4.33;;;33.60;40.10;;;;;;5049671;28;20606;-89
2022/06/19 10:22:59;;;;;;;4.57;4.13;;;33.90;40.10;;;;;;5048728;28;20664;-89
2022/06/19 10:25:44;;;;;;;4.50;4.10;;;34.00;39.60;;;;;;5048783;28;20724;-89
2022/06/19 10:28:36;;;;;;;4.63;4.23;;;34.20;37.90;;;;;;5048621;28;20660;-89
2022/06/19 10:31:19;;;;;;;5.70;4.03;;;34.40;39.70;;;;;;5079747;28;20717;-88
2022/06/19 10:33:56;;;;;;;5.20;4.70;;;34.40;39.90;;;;;;5049005;28;20636;-89
2022/06/19 10:36:32;;;;;;;5.90;4.40;;;34.40;38.60;;;;;;5048560;28;20608;-88
2022/06/19 10:39:20;;;;;;;4.90;4.50;;;34.40;38.10;;;;;;5048575;28;20660;-90
2022/06/19 10:42:18;;;;;;;5.50;5.10;;;34.50;38.40;;;;;;5049265;28;20626;-89
2022/06/19 10:45:01;;;;;;;4.67;4.27;;;34.60;40.30;;;;;;5048461;28;21175;-88
2022/06/19 10:47:45;;;;;;;4.80;4.47;;;34.50;38.70;;;;;;5048386;28;21006;-90
2022/06/19 10:50:26;;;;;;;4.80;4.40;;;34.70;38.80;;;;;;5048680;28;20654;-90
2022/06/19 10:53:05;;;;;;;3.70;3.40;;;34.90;38.30;;;;;;5048848;28;20625;-88
2022/06/19 10:55:37;;;;;;;4.20;3.90;;;34.80;37.60;;;;;;5048750;28;20653;-89
2022/06/19 10:58:14;;;;;;;4.90;4.50;;;35.10;38.80;;;;;;5048895;28;20734;-89
2022/06/19 11:00:46;;;;;;;4.07;3.77;;;35.40;37.70;;;;;;5048290;28;20622;-88
2022/06/19 11:06:21;;;;;;;3.53;3.23;;;35.20;37.10;;;;;;5049433;28;20772;-89
2022/06/19 11:08:54;;;;;;;4.17;3.57;;;35.30;36.70;;;;;;5048173;28;21029;-89
2022/06/19 11:11:23;;;;;;;3.87;3.57;;;35.30;35.50;;;;;;5047973;28;21203;-90
2022/06/19 11:14:02;;;;;;;5.70;3.97;;;35.50;35.90;;;;;;5048820;28;20617;-86
2022/06/19 11:16:29;;;;;;;3.60;3.30;;;35.50;34.90;;;;;;5048121;28;20610;-89
2022/06/19 11:19:00;;;;;;;4.77;3.57;;;35.50;35.90;;;;;;5048479;28;20614;-89
2022/06/19 11:21:32;;;;;;;4.20;3.80;;;35.70;36.60;;;;;;5046887;28;20626;-88
2022/06/19 11:24:04;;;;;;;4.20;3.80;;;35.70;35.00;;;;;;5048151;28;20605;-89
2022/06/19 11:26:38;;;;;;;3.97;3.60;;;36.10;36.80;;;;;;5047492;28;20906;-89
2022/06/19 11:29:17;;;;;;;4.20;3.90;;;35.90;34.70;;;;;;5048714;28;20626;-89
2022/06/19 11:32:08;;;;;;;4.30;3.90;;;36.30;36.60;;;;;;5048426;28;21196;-89
2022/06/19 11:34:47;;;;;;;4.47;2.83;;;36.50;37.70;;;;;;5048217;28;20673;-89
2022/06/19 11:37:20;;;;;;;4.20;3.80;;;36.70;35.50;;;;;;5047958;28;21175;-88
2022/06/19 11:39:50;;;;;;;4.57;4.17;;;37.10;34.50;;;;;;5049236;28;20673;-88
2022/06/19 11:42:33;;;;;;;4.50;3.60;;;37.50;36.00;;;;;;5051889;28;20618;-89
2022/06/19 11:45:03;;;;;;;4.13;3.73;;;37.80;33.90;;;;;;5052133;28;20626;-89
2022/06/19 11:47:36;;;;;;;6.20;3.90;;;38.10;34.60;;;;;;5051733;28;20653;-91
2022/06/19 11:50:27;;;;;;;4.20;3.90;;;37.90;33.50;;;;;;5052163;28;21207;-88
2022/06/19 11:52:58;;;;;;;4.60;3.73;;;38.20;35.70;;;;;;5052734;28;20673;-89
2022/06/19 11:55:33;;;;;;;3.40;3.20;;;38.40;33.30;;;;;;5052511;28;21146;-89
2022/06/19 11:58:03;;;;;;;3.87;3.57;;;38.40;33.30;;;;;;5051561;28;21163;-89
2022/06/19 12:00:33;;;;;;;5.20;4.23;;;39.20;34.10;;;;;;5051647;28;20613;-91
2022/06/19 12:03:03;;;;;;;4.40;4.10;;;39.50;32.90;;;;;;5051798;28;20696;-91
2022/06/19 12:05:33;;;;;;;4.30;4.00;;;39.70;33.50;;;;;;5051656;28;20613;-89
2022/06/19 12:08:17;;;;;;;4.30;3.50;;;40.10;32.40;;;;;;5051219;28;20211;-90
2022/06/19 12:10:52;;;;;;;4.30;3.90;;;40.40;32.90;;;;;;5051667;28;20199;-89
2022/06/19 12:13:26;;;;;;;4.05;3.72;;;41.20;30.90;;;;;;5051089;28;20222;-90
2022/06/19 12:15:59;;;;;;;4.20;3.90;;;41.80;32.20;;;;;;5051398;28;20234;-89
2022/06/19 12:18:27;;;;;;;4.47;4.07;;;42.40;31.60;;;;;;5053311;28;20218;-90
2022/06/19 12:21:01;;;;;;;4.07;3.70;;;43.00;30.10;;;;;;5052363;28;20239;-88
2022/06/19 12:23:34;;;;;;;4.88;4.13;;;43.00;30.00;;;;;;5051133;28;20259;-89
2022/06/19 12:26:05;;;;;;;4.43;3.58;;;42.90;29.10;;;;;;5051314;28;20211;-90
2022/06/19 12:28:38;;;;;;;3.95;3.65;;;42.70;29.50;;;;;;5052262;28;20256;-89
2022/06/19 12:31:09;;;;;;;4.00;3.53;;;42.50;31.40;;;;;;5051704;28;20689;-90
2022/06/19 12:33:42;;;;;;;3.60;3.40;;;42.00;30.40;;;;;;5051412;28;20284;-90
2022/06/19 12:36:15;;;;;;;3.90;3.60;;;43.10;31.10;;;;;;5050876;28;20319;-90
2022/06/19 12:38:43;;;;;;;4.00;3.70;;;43.80;31.30;;;;;;5051084;28;20707;-90
2022/06/19 12:41:27;;;;;;;3.78;3.47;;;43.30;29.10;;;;;;5051199;28;20299;-88
2022/06/19 12:44:08;;;;;;;3.70;3.47;;;42.90;29.50;;;;;;5050814;28;20676;-91
2022/06/19 12:46:42;;;;;;;4.30;4.00;;;41.90;29.30;;;;;;5050093;28;20200;-89
2022/06/19 12:49:24;;;;;;;3.90;3.60;;;42.20;29.80;;;;;;5051428;28;20206;-90
2022/06/19 12:51:56;;;;;;;3.67;3.47;;;42.40;30.60;;;;;;5049812;28;20268;-90
2022/06/19 12:54:52;;;;;;;4.32;3.20;;;42.50;29.80;;;;;;5051139;28;20212;-88
2022/06/19 12:57:35;;;;;;;3.67;3.47;;;43.50;29.90;;;;;;5050551;28;20232;-88
2022/06/19 13:00:11;;;;;;;3.80;3.60;;;43.90;29.20;;;;;;5051350;28;20522;-89
2022/06/19 13:02:59;;;;;;;4.18;3.97;;;43.30;29.10;;;;;;5050610;28;20217;-92
2022/06/19 13:05:44;;;;;;;3.40;3.05;;;43.60;29.30;;;;;;5050492;28;20206;-89
2022/06/19 13:08:19;;;;;;;4.03;3.72;;;44.30;28.70;;;;;;5050129;28;20213;-92
2022/06/19 13:11:00;;;;;;;3.35;3.08;;;44.00;30.00;;;;;;5051276;28;20298;-90
2022/06/19 13:13:54;;;;;;;2.85;2.65;;;43.40;28.20;;;;;;5050413;28;20206;-91
2022/06/19 13:16:30;;;;;;;4.00;3.70;;;44.00;29.60;;;;;;5049879;28;20696;-90
2022/06/19 13:19:04;;;;;;;3.72;3.38;;;44.70;29.40;;;;;;5050326;28;20205;-90
2022/06/19 13:21:39;;;;;;;3.60;3.35;;;44.80;29.60;;;;;;5049209;28;20230;-91